sensor_id;sensor_type;location;lat;lon;timestamp;P1;durP1;ratioP1;P2;durP2;ratioP2
1613;SDS011;800;48.824;9.346;2024-02-14T00:01:05;5.30;;;4.80;;
1613;SDS011;800;48.824;9.346;2024-02-14T00:03:33;6.03;;;3.97;;
1613;SDS011;800;48.824;9.346;2024-02-14T00:05:59;5.73;;;4.20;;
1613;SDS011;800;48.824;9.346;2024-02-14T00:08:25;5.63;;;4.73;;
1613;SDS011;800;48.824;9.346;2024-02-14T00:10:50;5.50;;;4.33;;
1613;SDS011;800;48.824;9.346;2024-02-14T00:13:16;6.10;;;4.50;;
1613;SDS011;800;48.824;9.346;2024-02-14T00:15:43;5.70;;;4.53;;
1613;SDS011;800;48.824;9.346;2024-02-14T00:18:10;6.60;;;5.23;;
1613;SDS011;800;48.824;9.346;2024-02-14T00:20:36;8.13;;;5.30;;
1613;SDS011;800;48.824;9.346;2024-02-14T00:23:02;6.30;;;3.90;;
1613;SDS011;800;48.824;9.346;2024-02-14T00:25:27;5.00;;;3.97;;
1613;SDS011;800;48.824;9.346;2024-02-14T00:27:53;6.13;;;3.93;;
1613;SDS011;800;48.824;9.346;2024-02-14T00:30:19;5.43;;;4.50;;
1613;SDS011;800;48.824;9.346;2024-02-14T00:32:45;5.23;;;4.37;;
1613;SDS011;800;48.824;9.346;2024-02-14T00:35:11;5.47;;;4.00;;
1613;SDS011;800;48.824;9.346;2024-02-14T00:37:37;7.13;;;4.97;;
1613;SDS011;800;48.824;9.346;2024-02-14T00:40:02;5.00;;;4.00;;
1613;SDS011;800;48.824;9.346;2024-02-14T00:42:28;6.23;;;4.10;;
1613;SDS011;800;48.824;9.346;2024-02-14T00:44:54;5.97;;;4.20;;
1613;SDS011;800;48.824;9.346;2024-02-14T00:47:19;4.77;;;3.57;;
1613;SDS011;800;48.824;9.346;2024-02-14T00:49:45;7.07;;;4.10;;
1613;SDS011;800;48.824;9.346;2024-02-14T00:52:12;5.03;;;4.00;;
1613;SDS011;800;48.824;9.346;2024-02-14T00:54:38;4.83;;;4.13;;
1613;SDS011;800;48.824;9.346;2024-02-14T00:57:03;7.00;;;4.27;;
1613;SDS011;800;48.824;9.346;2024-02-14T00:59:30;7.70;;;3.63;;
1613;SDS011;800;48.824;9.346;2024-02-14T01:01:55;8.73;;;4.97;;
1613;SDS011;800;48.824;9.346;2024-02-14T01:04:21;4.50;;;4.10;;
1613;SDS011;800;48.824;9.346;2024-02-14T01:06:46;4.20;;;3.80;;
1613;SDS011;800;48.824;9.346;2024-02-14T01:09:14;6.00;;;4.10;;
1613;SDS011;800;48.824;9.346;2024-02-14T01:11:40;5.23;;;4.30;;
1613;SDS011;800;48.824;9.346;2024-02-14T01:14:05;5.37;;;4.60;;
1613;SDS011;800;48.824;9.346;2024-02-14T01:16:31;5.27;;;4.60;;
1613;SDS011;800;48.824;9.346;2024-02-14T01:18:56;4.97;;;4.10;;
1613;SDS011;800;48.824;9.346;2024-02-14T01:21:22;9.80;;;3.93;;
1613;SDS011;800;48.824;9.346;2024-02-14T01:23:47;7.30;;;3.77;;
1613;SDS011;800;48.824;9.346;2024-02-14T01:26:13;7.83;;;4.43;;
1613;SDS011;800;48.824;9.346;2024-02-14T01:28:39;5.03;;;3.80;;
1613;SDS011;800;48.824;9.346;2024-02-14T01:31:05;6.03;;;3.97;;
1613;SDS011;800;48.824;9.346;2024-02-14T01:33:30;6.27;;;3.70;;
1613;SDS011;800;48.824;9.346;2024-02-14T01:35:56;6.37;;;3.60;;
1613;SDS011;800;48.824;9.346;2024-02-14T01:38:22;8.00;;;4.10;;
1613;SDS011;800;48.824;9.346;2024-02-14T01:40:48;4.77;;;3.70;;
1613;SDS011;800;48.824;9.346;2024-02-14T01:43:14;4.53;;;3.90;;
1613;SDS011;800;48.824;9.346;2024-02-14T01:45:39;4.67;;;3.80;;
1613;SDS011;800;48.824;9.346;2024-02-14T01:48:05;4.67;;;4.27;;
1613;SDS011;800;48.824;9.346;2024-02-14T01:50:32;5.40;;;3.90;;
1613;SDS011;800;48.824;9.346;2024-02-14T01:52:59;5.60;;;3.80;;
1613;SDS011;800;48.824;9.346;2024-02-14T01:55:26;5.80;;;4.03;;
1613;SDS011;800;48.824;9.346;2024-02-14T01:57:53;4.30;;;3.90;;
1613;SDS011;800;48.824;9.346;2024-02-14T02:00:19;7.20;;;4.50;;
1613;SDS011;800;48.824;9.346;2024-02-14T02:02:45;4.87;;;3.60;;
1613;SDS011;800;48.824;9.346;2024-02-14T02:05:12;7.53;;;3.87;;
1613;SDS011;800;48.824;9.346;2024-02-14T02:07:38;4.63;;;3.57;;
1613;SDS011;800;48.824;9.346;2024-02-14T02:10:07;5.87;;;4.30;;
1613;SDS011;800;48.824;9.346;2024-02-14T02:12:34;4.40;;;4.00;;
1613;SDS011;800;48.824;9.346;2024-02-14T02:14:59;7.17;;;4.30;;
1613;SDS011;800;48.824;9.346;2024-02-14T02:17:25;6.40;;;3.80;;
1613;SDS011;800;48.824;9.346;2024-02-14T02:19:53;6.00;;;3.83;;
1613;SDS011;800;48.824;9.346;2024-02-14T02:22:19;5.60;;;3.27;;
1613;SDS011;800;48.824;9.346;2024-02-14T02:24:45;3.90;;;3.53;;
1613;SDS011;800;48.824;9.346;2024-02-14T02:27:12;4.37;;;3.47;;
1613;SDS011;800;48.824;9.346;2024-02-14T02:29:38;7.13;;;3.90;;
1613;SDS011;800;48.824;9.346;2024-02-14T02:32:04;4.60;;;3.53;;
1613;SDS011;800;48.824;9.346;2024-02-14T02:34:31;6.90;;;4.47;;
1613;SDS011;800;48.824;9.346;2024-02-14T02:36:56;6.50;;;3.53;;
1613;SDS011;800;48.824;9.346;2024-02-14T02:39:22;4.10;;;3.60;;
1613;SDS011;800;48.824;9.346;2024-02-14T02:41:47;4.10;;;3.57;;
1613;SDS011;800;48.824;9.346;2024-02-14T02:44:14;4.07;;;3.33;;
1613;SDS011;800;48.824;9.346;2024-02-14T02:46:40;3.37;;;3.07;;
1613;SDS011;800;48.824;9.346;2024-02-14T02:49:05;5.20;;;3.37;;
1613;SDS011;800;48.824;9.346;2024-02-14T02:51:31;5.10;;;3.37;;
1613;SDS011;800;48.824;9.346;2024-02-14T02:53:56;6.67;;;2.60;;
1613;SDS011;800;48.824;9.346;2024-02-14T02:56:22;4.20;;;3.33;;
1613;SDS011;800;48.824;9.346;2024-02-14T02:58:52;5.80;;;3.77;;
1613;SDS011;800;48.824;9.346;2024-02-14T03:01:19;5.77;;;4.00;;
1613;SDS011;800;48.824;9.346;2024-02-14T03:03:44;5.20;;;3.47;;
1613;SDS011;800;48.824;9.346;2024-02-14T03:06:10;3.90;;;3.03;;
1613;SDS011;800;48.824;9.346;2024-02-14T03:08:37;3.20;;;2.90;;
1613;SDS011;800;48.824;9.346;2024-02-14T03:11:06;5.33;;;2.93;;
1613;SDS011;800;48.824;9.346;2024-02-14T03:13:32;4.50;;;3.50;;
1613;SDS011;800;48.824;9.346;2024-02-14T03:15:58;4.00;;;3.53;;
1613;SDS011;800;48.824;9.346;2024-02-14T03:18:24;3.20;;;2.93;;
1613;SDS011;800;48.824;9.346;2024-02-14T03:20:50;5.90;;;3.73;;
1613;SDS011;800;48.824;9.346;2024-02-14T03:23:16;4.43;;;3.43;;
1613;SDS011;800;48.824;9.346;2024-02-14T03:25:41;5.37;;;3.63;;
1613;SDS011;800;48.824;9.346;2024-02-14T03:28:07;5.20;;;4.70;;
1613;SDS011;800;48.824;9.346;2024-02-14T03:30:33;4.43;;;3.80;;
1613;SDS011;800;48.824;9.346;2024-02-14T03:32:59;4.73;;;4.27;;
1613;SDS011;800;48.824;9.346;2024-02-14T03:35:25;6.33;;;3.83;;
1613;SDS011;800;48.824;9.346;2024-02-14T03:37:52;6.93;;;4.30;;
1613;SDS011;800;48.824;9.346;2024-02-14T03:40:18;5.00;;;4.50;;
1613;SDS011;800;48.824;9.346;2024-02-14T03:42:47;6.87;;;4.70;;
1613;SDS011;800;48.824;9.346;2024-02-14T03:45:12;5.60;;;4.10;;
1613;SDS011;800;48.824;9.346;2024-02-14T03:47:38;4.50;;;3.40;;
1613;SDS011;800;48.824;9.346;2024-02-14T03:50:05;4.67;;;4.00;;
1613;SDS011;800;48.824;9.346;2024-02-14T03:52:32;7.33;;;3.73;;
1613;SDS011;800;48.824;9.346;2024-02-14T03:54:57;8.43;;;3.57;;
1613;SDS011;800;48.824;9.346;2024-02-14T03:57:24;4.97;;;3.97;;
1613;SDS011;800;48.824;9.346;2024-02-14T03:59:52;7.00;;;3.50;;
1613;SDS011;800;48.824;9.346;2024-02-14T04:02:17;6.63;;;4.23;;
1613;SDS011;800;48.824;9.346;2024-02-14T04:04:44;3.50;;;3.20;;
1613;SDS011;800;48.824;9.346;2024-02-14T04:07:11;4.33;;;3.60;;
1613;SDS011;800;48.824;9.346;2024-02-14T04:09:37;4.33;;;3.40;;
1613;SDS011;800;48.824;9.346;2024-02-14T04:12:03;3.83;;;3.50;;
1613;SDS011;800;48.824;9.346;2024-02-14T04:14:29;3.53;;;3.00;;
1613;SDS011;800;48.824;9.346;2024-02-14T04:16:54;4.87;;;3.57;;
1613;SDS011;800;48.824;9.346;2024-02-14T04:19:20;4.53;;;3.80;;
1613;SDS011;800;48.824;9.346;2024-02-14T04:21:46;8.73;;;4.00;;
1613;SDS011;800;48.824;9.346;2024-02-14T04:24:11;4.17;;;3.87;;
1613;SDS011;800;48.824;9.346;2024-02-14T04:26:37;6.60;;;3.70;;
1613;SDS011;800;48.824;9.346;2024-02-14T04:29:03;6.53;;;3.70;;
1613;SDS011;800;48.824;9.346;2024-02-14T04:31:29;8.20;;;3.87;;
1613;SDS011;800;48.824;9.346;2024-02-14T04:33:55;5.33;;;3.73;;
1613;SDS011;800;48.824;9.346;2024-02-14T04:36:21;3.83;;;3.43;;
1613;SDS011;800;48.824;9.346;2024-02-14T04:38:49;4.80;;;3.60;;
1613;SDS011;800;48.824;9.346;2024-02-14T04:41:15;5.07;;;3.90;;
1613;SDS011;800;48.824;9.346;2024-02-14T04:43:41;4.00;;;3.60;;
1613;SDS011;800;48.824;9.346;2024-02-14T04:46:07;4.93;;;4.10;;
1613;SDS011;800;48.824;9.346;2024-02-14T04:48:33;7.20;;;4.60;;
1613;SDS011;800;48.824;9.346;2024-02-14T04:51:02;4.57;;;3.70;;
1613;SDS011;800;48.824;9.346;2024-02-14T04:53:29;5.23;;;3.50;;
1613;SDS011;800;48.824;9.346;2024-02-14T04:55:54;7.20;;;4.20;;
1613;SDS011;800;48.824;9.346;2024-02-14T04:58:20;6.83;;;4.40;;
1613;SDS011;800;48.824;9.346;2024-02-14T05:00:46;5.93;;;3.60;;
1613;SDS011;800;48.824;9.346;2024-02-14T05:03:11;6.37;;;4.00;;
1613;SDS011;800;48.824;9.346;2024-02-14T05:05:37;9.10;;;3.93;;
1613;SDS011;800;48.824;9.346;2024-02-14T05:08:03;4.07;;;3.40;;
1613;SDS011;800;48.824;9.346;2024-02-14T05:10:29;5.10;;;3.40;;
1613;SDS011;800;48.824;9.346;2024-02-14T05:12:55;4.10;;;3.40;;
1613;SDS011;800;48.824;9.346;2024-02-14T05:15:21;5.33;;;4.20;;
1613;SDS011;800;48.824;9.346;2024-02-14T05:17:47;5.93;;;4.03;;
1613;SDS011;800;48.824;9.346;2024-02-14T05:20:15;5.03;;;3.93;;
1613;SDS011;800;48.824;9.346;2024-02-14T05:22:40;4.57;;;4.17;;
1613;SDS011;800;48.824;9.346;2024-02-14T05:25:06;7.10;;;3.60;;
1613;SDS011;800;48.824;9.346;2024-02-14T05:27:33;4.43;;;3.40;;
1613;SDS011;800;48.824;9.346;2024-02-14T05:29:59;4.37;;;3.37;;
1613;SDS011;800;48.824;9.346;2024-02-14T05:32:25;3.70;;;3.40;;
1613;SDS011;800;48.824;9.346;2024-02-14T05:34:51;3.43;;;3.13;;
1613;SDS011;800;48.824;9.346;2024-02-14T05:37:16;4.73;;;3.70;;
1613;SDS011;800;48.824;9.346;2024-02-14T05:39:42;5.33;;;3.83;;
1613;SDS011;800;48.824;9.346;2024-02-14T05:42:08;3.67;;;3.37;;
1613;SDS011;800;48.824;9.346;2024-02-14T05:44:33;5.90;;;4.80;;
1613;SDS011;800;48.824;9.346;2024-02-14T05:46:59;7.63;;;4.00;;
1613;SDS011;800;48.824;9.346;2024-02-14T05:49:25;6.03;;;3.73;;
1613;SDS011;800;48.824;9.346;2024-02-14T05:51:51;5.17;;;3.40;;
1613;SDS011;800;48.824;9.346;2024-02-14T05:54:18;3.87;;;3.43;;
1613;SDS011;800;48.824;9.346;2024-02-14T05:56:45;5.50;;;3.50;;
1613;SDS011;800;48.824;9.346;2024-02-14T05:59:11;3.00;;;2.73;;
1613;SDS011;800;48.824;9.346;2024-02-14T06:01:36;3.40;;;3.10;;
1613;SDS011;800;48.824;9.346;2024-02-14T06:04:02;6.00;;;3.73;;
1613;SDS011;800;48.824;9.346;2024-02-14T06:06:28;5.73;;;3.53;;
1613;SDS011;800;48.824;9.346;2024-02-14T06:08:54;5.97;;;4.57;;
1613;SDS011;800;48.824;9.346;2024-02-14T06:11:20;9.30;;;5.43;;
1613;SDS011;800;48.824;9.346;2024-02-14T06:13:46;4.80;;;4.07;;
1613;SDS011;800;48.824;9.346;2024-02-14T06:16:12;4.90;;;3.40;;
1613;SDS011;800;48.824;9.346;2024-02-14T06:18:38;6.83;;;3.17;;
1613;SDS011;800;48.824;9.346;2024-02-14T06:21:05;4.20;;;3.10;;
1613;SDS011;800;48.824;9.346;2024-02-14T06:23:31;7.67;;;3.50;;
1613;SDS011;800;48.824;9.346;2024-02-14T06:25:57;6.20;;;3.13;;
1613;SDS011;800;48.824;9.346;2024-02-14T06:28:23;3.93;;;3.60;;
1613;SDS011;800;48.824;9.346;2024-02-14T06:30:49;3.03;;;2.67;;
1613;SDS011;800;48.824;9.346;2024-02-14T06:33:15;4.60;;;2.80;;
1613;SDS011;800;48.824;9.346;2024-02-14T06:35:40;5.97;;;2.70;;
1613;SDS011;800;48.824;9.346;2024-02-14T06:38:06;4.63;;;2.80;;
1613;SDS011;800;48.824;9.346;2024-02-14T06:40:32;3.67;;;3.00;;
1613;SDS011;800;48.824;9.346;2024-02-14T06:42:58;3.53;;;2.10;;
1613;SDS011;800;48.824;9.346;2024-02-14T06:45:25;5.10;;;2.90;;
1613;SDS011;800;48.824;9.346;2024-02-14T06:47:51;4.40;;;2.10;;
1613;SDS011;800;48.824;9.346;2024-02-14T06:50:16;4.70;;;2.60;;
1613;SDS011;800;48.824;9.346;2024-02-14T06:52:42;3.63;;;2.97;;
1613;SDS011;800;48.824;9.346;2024-02-14T06:55:07;4.40;;;3.27;;
1613;SDS011;800;48.824;9.346;2024-02-14T06:57:33;5.00;;;3.07;;
1613;SDS011;800;48.824;9.346;2024-02-14T06:59:59;4.13;;;3.00;;
1613;SDS011;800;48.824;9.346;2024-02-14T07:02:24;3.60;;;3.20;;
1613;SDS011;800;48.824;9.346;2024-02-14T07:04:53;3.53;;;2.67;;
1613;SDS011;800;48.824;9.346;2024-02-14T07:07:19;5.90;;;3.70;;
1613;SDS011;800;48.824;9.346;2024-02-14T07:09:44;5.30;;;3.60;;
1613;SDS011;800;48.824;9.346;2024-02-14T07:12:10;6.93;;;3.57;;
1613;SDS011;800;48.824;9.346;2024-02-14T07:14:36;5.83;;;3.77;;
1613;SDS011;800;48.824;9.346;2024-02-14T07:17:01;8.90;;;3.47;;
1613;SDS011;800;48.824;9.346;2024-02-14T07:19:27;6.60;;;3.60;;
1613;SDS011;800;48.824;9.346;2024-02-14T07:21:53;3.23;;;2.90;;
1613;SDS011;800;48.824;9.346;2024-02-14T07:24:18;6.13;;;2.47;;
1613;SDS011;800;48.824;9.346;2024-02-14T07:26:44;3.23;;;2.57;;
1613;SDS011;800;48.824;9.346;2024-02-14T07:29:09;7.30;;;4.37;;
1613;SDS011;800;48.824;9.346;2024-02-14T07:31:35;5.80;;;3.77;;
1613;SDS011;800;48.824;9.346;2024-02-14T07:34:00;5.23;;;3.00;;
1613;SDS011;800;48.824;9.346;2024-02-14T07:36:28;4.00;;;3.17;;
1613;SDS011;800;48.824;9.346;2024-02-14T07:38:54;4.03;;;2.90;;
1613;SDS011;800;48.824;9.346;2024-02-14T07:41:19;5.60;;;3.80;;
1613;SDS011;800;48.824;9.346;2024-02-14T07:43:45;4.80;;;2.97;;
1613;SDS011;800;48.824;9.346;2024-02-14T07:46:11;2.80;;;2.60;;
1613;SDS011;800;48.824;9.346;2024-02-14T07:48:41;5.83;;;3.10;;
1613;SDS011;800;48.824;9.346;2024-02-14T07:51:09;4.33;;;2.73;;
1613;SDS011;800;48.824;9.346;2024-02-14T07:53:34;3.07;;;2.57;;
1613;SDS011;800;48.824;9.346;2024-02-14T07:56:00;3.43;;;3.00;;
1613;SDS011;800;48.824;9.346;2024-02-14T07:58:26;4.80;;;3.20;;
1613;SDS011;800;48.824;9.346;2024-02-14T08:00:51;4.33;;;3.13;;
1613;SDS011;800;48.824;9.346;2024-02-14T08:03:17;5.20;;;3.57;;
1613;SDS011;800;48.824;9.346;2024-02-14T08:05:42;5.30;;;3.50;;
1613;SDS011;800;48.824;9.346;2024-02-14T08:08:08;3.60;;;3.30;;
1613;SDS011;800;48.824;9.346;2024-02-14T08:10:33;3.90;;;3.50;;
1613;SDS011;800;48.824;9.346;2024-02-14T08:12:59;3.87;;;3.33;;
1613;SDS011;800;48.824;9.346;2024-02-14T08:15:25;3.10;;;2.80;;
1613;SDS011;800;48.824;9.346;2024-02-14T08:17:50;6.10;;;2.90;;
1613;SDS011;800;48.824;9.346;2024-02-14T08:20:19;6.73;;;3.00;;
1613;SDS011;800;48.824;9.346;2024-02-14T08:22:44;2.83;;;2.60;;
1613;SDS011;800;48.824;9.346;2024-02-14T08:25:10;5.30;;;3.57;;
1613;SDS011;800;48.824;9.346;2024-02-14T08:27:36;8.40;;;3.70;;
1613;SDS011;800;48.824;9.346;2024-02-14T08:30:02;3.90;;;3.20;;
1613;SDS011;800;48.824;9.346;2024-02-14T08:32:29;4.40;;;3.80;;
1613;SDS011;800;48.824;9.346;2024-02-14T08:34:56;5.10;;;3.70;;
1613;SDS011;800;48.824;9.346;2024-02-14T08:37:21;10.10;;;6.70;;
1613;SDS011;800;48.824;9.346;2024-02-14T08:39:49;6.60;;;4.60;;
1613;SDS011;800;48.824;9.346;2024-02-14T08:42:15;6.57;;;5.10;;
1613;SDS011;800;48.824;9.346;2024-02-14T08:44:40;7.43;;;4.93;;
1613;SDS011;800;48.824;9.346;2024-02-14T08:47:06;5.70;;;3.67;;
1613;SDS011;800;48.824;9.346;2024-02-14T08:49:32;8.90;;;4.03;;
1613;SDS011;800;48.824;9.346;2024-02-14T08:51:58;4.97;;;3.57;;
1613;SDS011;800;48.824;9.346;2024-02-14T08:54:24;5.53;;;4.20;;
1613;SDS011;800;48.824;9.346;2024-02-14T08:56:49;4.87;;;4.13;;
1613;SDS011;800;48.824;9.346;2024-02-14T08:59:17;6.83;;;3.50;;
1613;SDS011;800;48.824;9.346;2024-02-14T09:01:43;6.40;;;3.97;;
1613;SDS011;800;48.824;9.346;2024-02-14T09:04:09;5.33;;;4.00;;
1613;SDS011;800;48.824;9.346;2024-02-14T09:06:35;4.53;;;3.80;;
1613;SDS011;800;48.824;9.346;2024-02-14T09:09:02;7.60;;;3.70;;
1613;SDS011;800;48.824;9.346;2024-02-14T09:11:28;6.63;;;4.07;;
1613;SDS011;800;48.824;9.346;2024-02-14T09:13:53;3.73;;;3.20;;
1613;SDS011;800;48.824;9.346;2024-02-14T09:16:21;5.70;;;3.87;;
1613;SDS011;800;48.824;9.346;2024-02-14T09:18:48;5.17;;;4.67;;
1613;SDS011;800;48.824;9.346;2024-02-14T09:21:13;4.07;;;3.50;;
1613;SDS011;800;48.824;9.346;2024-02-14T09:23:40;4.13;;;3.70;;
1613;SDS011;800;48.824;9.346;2024-02-14T09:26:06;6.10;;;4.17;;
1613;SDS011;800;48.824;9.346;2024-02-14T09:28:32;6.20;;;3.23;;
1613;SDS011;800;48.824;9.346;2024-02-14T09:31:00;5.20;;;3.30;;
1613;SDS011;800;48.824;9.346;2024-02-14T09:33:25;3.23;;;2.87;;
1613;SDS011;800;48.824;9.346;2024-02-14T09:35:51;3.27;;;2.97;;
1613;SDS011;800;48.824;9.346;2024-02-14T09:38:17;6.40;;;3.17;;
1613;SDS011;800;48.824;9.346;2024-02-14T09:40:42;3.03;;;2.73;;
1613;SDS011;800;48.824;9.346;2024-02-14T09:43:12;3.27;;;2.67;;
1613;SDS011;800;48.824;9.346;2024-02-14T09:45:50;2.90;;;2.67;;
1613;SDS011;800;48.824;9.346;2024-02-14T09:48:17;3.40;;;2.40;;
1613;SDS011;800;48.824;9.346;2024-02-14T09:50:44;2.60;;;2.23;;
1613;SDS011;800;48.824;9.346;2024-02-14T09:53:11;3.30;;;2.50;;
1613;SDS011;800;48.824;9.346;2024-02-14T09:55:38;4.17;;;2.37;;
1613;SDS011;800;48.824;9.346;2024-02-14T09:58:05;4.90;;;2.83;;
1613;SDS011;800;48.824;9.346;2024-02-14T10:00:31;6.10;;;2.70;;
1613;SDS011;800;48.824;9.346;2024-02-14T10:02:58;3.70;;;2.63;;
1613;SDS011;800;48.824;9.346;2024-02-14T10:05:24;3.50;;;2.80;;
1613;SDS011;800;48.824;9.346;2024-02-14T10:07:50;3.00;;;2.70;;
1613;SDS011;800;48.824;9.346;2024-02-14T10:10:15;3.43;;;2.70;;
1613;SDS011;800;48.824;9.346;2024-02-14T10:12:41;6.20;;;3.30;;
1613;SDS011;800;48.824;9.346;2024-02-14T10:15:08;3.00;;;2.73;;
1613;SDS011;800;48.824;9.346;2024-02-14T10:17:34;4.47;;;2.83;;
1613;SDS011;800;48.824;9.346;2024-02-14T10:20:00;5.77;;;2.27;;
1613;SDS011;800;48.824;9.346;2024-02-14T10:22:36;3.13;;;2.87;;
1613;SDS011;800;48.824;9.346;2024-02-14T10:25:04;4.33;;;2.30;;
1613;SDS011;800;48.824;9.346;2024-02-14T10:27:37;3.70;;;2.40;;
1613;SDS011;800;48.824;9.346;2024-02-14T10:30:06;2.60;;;1.70;;
1613;SDS011;800;48.824;9.346;2024-02-14T10:32:36;1.70;;;1.30;;
1613;SDS011;800;48.824;9.346;2024-02-14T10:35:06;3.63;;;1.70;;
1613;SDS011;800;48.824;9.346;2024-02-14T10:37:37;1.87;;;1.40;;
1613;SDS011;800;48.824;9.346;2024-02-14T10:40:03;2.70;;;1.47;;
1613;SDS011;800;48.824;9.346;2024-02-14T10:42:33;1.57;;;1.47;;
1613;SDS011;800;48.824;9.346;2024-02-14T10:44:59;1.77;;;1.63;;
1613;SDS011;800;48.824;9.346;2024-02-14T10:47:29;4.23;;;1.70;;
1613;SDS011;800;48.824;9.346;2024-02-14T10:49:57;2.80;;;1.50;;
1613;SDS011;800;48.824;9.346;2024-02-14T10:52:34;2.73;;;1.60;;
1613;SDS011;800;48.824;9.346;2024-02-14T10:55:02;2.60;;;1.70;;
1613;SDS011;800;48.824;9.346;2024-02-14T10:57:29;1.73;;;1.63;;
1613;SDS011;800;48.824;9.346;2024-02-14T10:59:57;1.97;;;1.53;;
1613;SDS011;800;48.824;9.346;2024-02-14T11:02:28;1.47;;;1.37;;
1613;SDS011;800;48.824;9.346;2024-02-14T11:04:55;2.30;;;1.50;;
1613;SDS011;800;48.824;9.346;2024-02-14T11:07:22;1.80;;;1.70;;
1613;SDS011;800;48.824;9.346;2024-02-14T11:09:48;2.10;;;1.27;;
1613;SDS011;800;48.824;9.346;2024-02-14T11:12:25;7.60;;;1.37;;
1613;SDS011;800;48.824;9.346;2024-02-14T11:14:50;2.70;;;1.30;;
1613;SDS011;800;48.824;9.346;2024-02-14T11:17:18;2.27;;;1.33;;
1613;SDS011;800;48.824;9.346;2024-02-14T11:19:49;1.60;;;1.47;;
1613;SDS011;800;48.824;9.346;2024-02-14T11:22:19;1.73;;;1.40;;
1613;SDS011;800;48.824;9.346;2024-02-14T11:24:46;2.53;;;1.20;;
1613;SDS011;800;48.824;9.346;2024-02-14T11:27:12;1.63;;;1.00;;
1613;SDS011;800;48.824;9.346;2024-02-14T11:29:39;2.60;;;1.10;;
1613;SDS011;800;48.824;9.346;2024-02-14T11:32:06;1.30;;;1.20;;
1613;SDS011;800;48.824;9.346;2024-02-14T11:34:35;2.60;;;1.40;;
1613;SDS011;800;48.824;9.346;2024-02-14T11:37:01;2.67;;;1.20;;
1613;SDS011;800;48.824;9.346;2024-02-14T11:39:26;1.80;;;1.40;;
1613;SDS011;800;48.824;9.346;2024-02-14T11:41:52;4.60;;;2.70;;
1613;SDS011;800;48.824;9.346;2024-02-14T11:44:20;4.13;;;1.73;;
1613;SDS011;800;48.824;9.346;2024-02-14T11:46:48;4.43;;;2.90;;
1613;SDS011;800;48.824;9.346;2024-02-14T11:49:14;2.23;;;1.80;;
1613;SDS011;800;48.824;9.346;2024-02-14T11:51:41;2.50;;;1.50;;
1613;SDS011;800;48.824;9.346;2024-02-14T11:54:07;2.17;;;1.67;;
1613;SDS011;800;48.824;9.346;2024-02-14T11:56:35;2.70;;;1.40;;
1613;SDS011;800;48.824;9.346;2024-02-14T11:59:02;1.53;;;1.03;;
1613;SDS011;800;48.824;9.346;2024-02-14T12:01:31;0.93;;;0.93;;
1613;SDS011;800;48.824;9.346;2024-02-14T12:03:58;2.30;;;2.00;;
1613;SDS011;800;48.824;9.346;2024-02-14T12:06:25;4.00;;;2.10;;
1613;SDS011;800;48.824;9.346;2024-02-14T12:09:00;2.17;;;1.20;;
1613;SDS011;800;48.824;9.346;2024-02-14T12:11:37;1.47;;;1.17;;
1613;SDS011;800;48.824;9.346;2024-02-14T12:14:06;3.83;;;1.30;;
1613;SDS011;800;48.824;9.346;2024-02-14T12:16:35;2.13;;;1.10;;
1613;SDS011;800;48.824;9.346;2024-02-14T12:19:06;1.30;;;0.93;;
1613;SDS011;800;48.824;9.346;2024-02-14T12:21:35;2.80;;;1.00;;
1613;SDS011;800;48.824;9.346;2024-02-14T12:24:02;2.77;;;1.20;;
1613;SDS011;800;48.824;9.346;2024-02-14T12:26:31;1.60;;;0.90;;
1613;SDS011;800;48.824;9.346;2024-02-14T12:28:57;5.60;;;1.57;;
1613;SDS011;800;48.824;9.346;2024-02-14T12:31:23;4.57;;;3.07;;
1613;SDS011;800;48.824;9.346;2024-02-14T12:33:49;2.47;;;2.00;;
1613;SDS011;800;48.824;9.346;2024-02-14T12:36:17;1.77;;;1.20;;
1613;SDS011;800;48.824;9.346;2024-02-14T12:38:43;2.40;;;1.60;;
1613;SDS011;800;48.824;9.346;2024-02-14T12:41:09;5.33;;;1.20;;
1613;SDS011;800;48.824;9.346;2024-02-14T12:43:35;2.90;;;1.53;;
1613;SDS011;800;48.824;9.346;2024-02-14T12:46:01;1.47;;;1.30;;
1613;SDS011;800;48.824;9.346;2024-02-14T12:48:26;1.70;;;1.40;;
1613;SDS011;800;48.824;9.346;2024-02-14T12:50:53;1.57;;;1.47;;
1613;SDS011;800;48.824;9.346;2024-02-14T12:53:21;3.13;;;1.13;;
1613;SDS011;800;48.824;9.346;2024-02-14T12:55:46;1.83;;;1.30;;
1613;SDS011;800;48.824;9.346;2024-02-14T12:58:12;2.10;;;1.70;;
1613;SDS011;800;48.824;9.346;2024-02-14T13:00:38;1.13;;;1.03;;
1613;SDS011;800;48.824;9.346;2024-02-14T13:03:04;2.30;;;1.77;;
1613;SDS011;800;48.824;9.346;2024-02-14T13:05:30;2.37;;;1.40;;
1613;SDS011;800;48.824;9.346;2024-02-14T13:07:56;2.37;;;1.23;;
1613;SDS011;800;48.824;9.346;2024-02-14T13:10:21;1.80;;;1.60;;
1613;SDS011;800;48.824;9.346;2024-02-14T13:12:48;1.53;;;1.40;;
1613;SDS011;800;48.824;9.346;2024-02-14T13:15:14;2.67;;;1.27;;
1613;SDS011;800;48.824;9.346;2024-02-14T13:17:41;2.40;;;1.30;;
1613;SDS011;800;48.824;9.346;2024-02-14T13:20:07;1.67;;;1.40;;
1613;SDS011;800;48.824;9.346;2024-02-14T13:22:33;1.43;;;1.33;;
1613;SDS011;800;48.824;9.346;2024-02-14T13:24:59;1.77;;;1.40;;
1613;SDS011;800;48.824;9.346;2024-02-14T13:27:28;1.30;;;1.20;;
1613;SDS011;800;48.824;9.346;2024-02-14T13:29:53;1.20;;;1.10;;
1613;SDS011;800;48.824;9.346;2024-02-14T13:32:19;2.17;;;1.17;;
1613;SDS011;800;48.824;9.346;2024-02-14T13:34:44;1.40;;;1.30;;
1613;SDS011;800;48.824;9.346;2024-02-14T13:37:10;1.43;;;0.90;;
1613;SDS011;800;48.824;9.346;2024-02-14T13:39:36;1.13;;;0.90;;
1613;SDS011;800;48.824;9.346;2024-02-14T13:42:02;1.23;;;1.10;;
1613;SDS011;800;48.824;9.346;2024-02-14T13:44:27;1.97;;;1.00;;
1613;SDS011;800;48.824;9.346;2024-02-14T13:46:53;1.07;;;1.03;;
1613;SDS011;800;48.824;9.346;2024-02-14T13:49:19;1.80;;;1.00;;
1613;SDS011;800;48.824;9.346;2024-02-14T13:51:48;1.67;;;1.07;;
1613;SDS011;800;48.824;9.346;2024-02-14T13:54:16;1.63;;;1.47;;
1613;SDS011;800;48.824;9.346;2024-02-14T13:56:42;1.20;;;1.10;;
1613;SDS011;800;48.824;9.346;2024-02-14T13:59:08;1.57;;;1.03;;
1613;SDS011;800;48.824;9.346;2024-02-14T14:01:35;2.97;;;1.13;;
1613;SDS011;800;48.824;9.346;2024-02-14T14:04:00;1.43;;;0.93;;
1613;SDS011;800;48.824;9.346;2024-02-14T14:06:26;1.40;;;1.10;;
1613;SDS011;800;48.824;9.346;2024-02-14T14:08:51;2.07;;;1.00;;
1613;SDS011;800;48.824;9.346;2024-02-14T14:11:17;1.10;;;1.00;;
1613;SDS011;800;48.824;9.346;2024-02-14T14:13:43;2.13;;;1.77;;
1613;SDS011;800;48.824;9.346;2024-02-14T14:16:10;1.47;;;1.17;;
1613;SDS011;800;48.824;9.346;2024-02-14T14:18:36;1.30;;;1.20;;
1613;SDS011;800;48.824;9.346;2024-02-14T14:21:02;4.20;;;1.83;;
1613;SDS011;800;48.824;9.346;2024-02-14T14:23:28;3.00;;;2.00;;
1613;SDS011;800;48.824;9.346;2024-02-14T14:25:54;1.40;;;1.30;;
1613;SDS011;800;48.824;9.346;2024-02-14T14:28:19;2.07;;;1.80;;
1613;SDS011;800;48.824;9.346;2024-02-14T14:30:50;2.40;;;1.93;;
1613;SDS011;800;48.824;9.346;2024-02-14T14:33:21;1.47;;;1.33;;
1613;SDS011;800;48.824;9.346;2024-02-14T14:35:47;2.00;;;1.43;;
1613;SDS011;800;48.824;9.346;2024-02-14T14:38:18;4.20;;;1.57;;
1613;SDS011;800;48.824;9.346;2024-02-14T14:40:44;2.27;;;1.60;;
1613;SDS011;800;48.824;9.346;2024-02-14T14:43:13;1.90;;;1.70;;
1613;SDS011;800;48.824;9.346;2024-02-14T14:45:39;2.40;;;1.50;;
1613;SDS011;800;48.824;9.346;2024-02-14T14:48:06;1.30;;;1.20;;
1613;SDS011;800;48.824;9.346;2024-02-14T14:50:33;2.07;;;1.37;;
1613;SDS011;800;48.824;9.346;2024-02-14T14:53:02;2.27;;;1.13;;
1613;SDS011;800;48.824;9.346;2024-02-14T14:58:16;2.97;;;1.60;;
1613;SDS011;800;48.824;9.346;2024-02-14T15:00:42;3.30;;;1.77;;
1613;SDS011;800;48.824;9.346;2024-02-14T15:03:09;2.70;;;2.07;;
1613;SDS011;800;48.824;9.346;2024-02-14T15:05:35;1.83;;;1.47;;
1613;SDS011;800;48.824;9.346;2024-02-14T15:08:03;2.80;;;1.50;;
1613;SDS011;800;48.824;9.346;2024-02-14T15:10:29;2.00;;;1.07;;
1613;SDS011;800;48.824;9.346;2024-02-14T15:12:54;2.63;;;1.30;;
1613;SDS011;800;48.824;9.346;2024-02-14T15:15:20;1.00;;;1.00;;
1613;SDS011;800;48.824;9.346;2024-02-14T15:17:46;1.67;;;0.97;;
1613;SDS011;800;48.824;9.346;2024-02-14T15:20:11;2.43;;;1.03;;
1613;SDS011;800;48.824;9.346;2024-02-14T15:22:37;1.87;;;1.17;;
1613;SDS011;800;48.824;9.346;2024-02-14T15:25:03;1.17;;;0.80;;
1613;SDS011;800;48.824;9.346;2024-02-14T15:27:29;1.57;;;1.30;;